Time;durP1;ratioP1;P1;durP2;ratioP2;P2;SDS_P1;SDS_P2;PMS_P1;PMS_P2;Temp;Humidity;BMP_temperature;BMP_pressure;BME280_temperature;BME280_humidity;BME280_pressure;Samples;Min_cycle;Max_cycle;Signal;HPM_P1;HPM_P2
2022/11/06 00:00:39;;;;;;;5.03;1.92;;;10.50;99.90;;;;;;5060466;28;20047;-76
2022/11/06 00:03:07;;;;;;;5.13;2.60;;;10.50;99.90;;;;;;5066782;28;20033;-73
2022/11/06 00:08:31;;;;;;;5.85;2.83;;;10.50;99.90;;;;;;5062328;28;20563;-72
2022/11/06 00:10:59;;;;;;;6.25;2.30;;;10.40;99.90;;;;;;5060788;28;20031;-73
2022/11/06 00:13:26;;;;;;;6.88;2.70;;;10.40;99.90;;;;;;5063505;28;20021;-72
2022/11/06 00:15:52;;;;;;;8.20;2.58;;;10.40;99.90;;;;;;5062093;28;20061;-74
2022/11/06 00:18:18;;;;;;;8.55;2.45;;;10.40;99.90;;;;;;5063309;28;20025;-72
2022/11/06 00:20:46;;;;;;;4.57;2.70;;;10.30;99.90;;;;;;5065116;28;20020;-74
2022/11/06 00:23:11;;;;;;;10.82;2.83;;;10.40;99.90;;;;;;5061127;28;20047;-73
2022/11/06 00:25:41;;;;;;;5.05;2.30;;;10.20;99.90;;;;;;5062967;28;20028;-74
2022/11/06 00:28:07;;;;;;;4.82;2.75;;;10.20;99.90;;;;;;5061663;28;20047;-72
2022/11/06 00:30:32;;;;;;;4.47;2.20;;;10.20;99.90;;;;;;5063794;28;20358;-72
2022/11/06 00:33:01;;;;;;;7.90;2.85;;;10.30;99.90;;;;;;5064169;28;20033;-73
2022/11/06 00:35:27;;;;;;;12.70;3.10;;;10.20;99.90;;;;;;5063625;28;20065;-71
2022/11/06 00:37:53;;;;;;;6.05;2.25;;;10.20;99.90;;;;;;5064199;28;20033;-72
2022/11/06 00:40:18;;;;;;;6.78;2.53;;;10.20;99.90;;;;;;5062376;28;20028;-72
2022/11/06 00:42:47;;;;;;;6.13;2.50;;;10.20;99.90;;;;;;5065204;28;20047;-73
2022/11/06 00:45:12;;;;;;;7.78;2.40;;;10.30;99.90;;;;;;5061577;28;20020;-74
2022/11/06 00:47:38;;;;;;;3.55;1.95;;;10.40;99.90;;;;;;5062158;28;20036;-72
2022/11/06 00:50:04;;;;;;;7.28;2.78;;;10.30;99.90;;;;;;5066995;28;20020;-72
2022/11/06 00:52:30;;;;;;;9.00;2.25;;;10.30;99.90;;;;;;5063010;28;20017;-73
2022/11/06 00:54:55;;;;;;;4.80;2.70;;;10.30;99.90;;;;;;5062812;28;20025;-72
2022/11/06 00:57:21;;;;;;;5.57;2.58;;;10.40;99.90;;;;;;5058888;28;20358;-72
2022/11/06 00:59:46;;;;;;;9.30;2.40;;;10.40;99.90;;;;;;5061697;28;20132;-73
2022/11/06 01:02:13;;;;;;;11.25;2.72;;;10.50;99.90;;;;;;5060069;28;20481;-72
2022/11/06 01:04:38;;;;;;;5.85;2.40;;;10.40;99.90;;;;;;5057156;28;20048;-72
2022/11/06 01:07:04;;;;;;;5.45;2.80;;;10.50;99.90;;;;;;5061582;28;20556;-73
2022/11/06 01:09:32;;;;;;;7.35;3.63;;;10.50;99.90;;;;;;5060180;28;20100;-72
2022/11/06 01:12:01;;;;;;;10.93;3.10;;;10.50;99.90;;;;;;5062007;28;20036;-74
2022/11/06 01:14:27;;;;;;;5.38;2.97;;;10.40;99.90;;;;;;5062355;28;20563;-73
2022/11/06 01:16:53;;;;;;;6.40;2.90;;;10.30;99.90;;;;;;5058226;28;20036;-73
2022/11/06 01:19:20;;;;;;;11.20;3.47;;;10.40;99.90;;;;;;5065930;28;20017;-73
2022/11/06 01:21:48;;;;;;;7.57;3.10;;;10.40;99.90;;;;;;5060726;28;20028;-71
2022/11/06 01:24:20;;;;;;;8.20;3.10;;;10.40;99.90;;;;;;5057177;28;20083;-73
2022/11/06 01:26:48;;;;;;;6.57;2.85;;;10.40;99.90;;;;;;5062206;28;20036;-72
2022/11/06 01:29:16;;;;;;;11.65;3.50;;;10.40;99.90;;;;;;5057813;28;20047;-73
2022/11/06 01:31:42;;;;;;;10.55;3.28;;;10.40;99.90;;;;;;5065356;28;20112;-73
2022/11/06 01:34:09;;;;;;;7.20;3.28;;;10.50;99.90;;;;;;5062100;28;20047;-74
2022/11/06 01:36:35;;;;;;;3.28;2.58;;;10.50;99.90;;;;;;5054869;28;20013;-71
2022/11/06 01:39:07;;;;;;;9.27;3.47;;;10.40;99.90;;;;;;5063032;28;20021;-72
2022/11/06 01:41:39;;;;;;;10.67;3.50;;;10.40;99.90;;;;;;5058616;28;20037;-72
2022/11/06 01:44:42;;;;;;;13.87;3.47;;;10.40;99.90;;;;;;5060825;28;20025;-72
2022/11/06 01:47:34;;;;;;;8.48;2.70;;;10.40;99.90;;;;;;5060946;28;20380;-72
2022/11/06 01:50:05;;;;;;;5.93;3.00;;;10.40;99.90;;;;;;5056532;28;20025;-72
2022/11/06 01:52:33;;;;;;;5.97;2.70;;;10.30;99.90;;;;;;5059120;28;20028;-73
2022/11/06 01:55:25;;;;;;;10.02;2.95;;;10.30;99.90;;;;;;5059636;28;20445;-72
2022/11/06 01:57:51;;;;;;;10.18;3.20;;;10.20;99.90;;;;;;5059837;28;20677;-73
2022/11/06 02:00:19;;;;;;;10.30;3.05;;;10.20;99.90;;;;;;5054069;28;20700;-72
2022/11/06 02:02:47;;;;;;;6.32;2.85;;;10.20;99.90;;;;;;5060805;28;20082;-73
2022/11/06 02:05:13;;;;;;;7.95;2.67;;;10.20;99.90;;;;;;5056978;28;20033;-73
2022/11/06 02:07:40;;;;;;;7.47;3.15;;;10.20;99.90;;;;;;5059096;28;20127;-74
2022/11/06 02:10:06;;;;;;;8.73;2.53;;;10.20;99.90;;;;;;5059026;28;20338;-76
2022/11/06 02:12:43;;;;;;;6.32;2.67;;;10.10;99.90;;;;;;5066484;28;20116;-73
2022/11/06 02:15:16;;;;;;;5.13;2.72;;;10.10;99.90;;;;;;5058613;28;20390;-72
2022/11/06 02:18:06;;;;;;;7.45;2.97;;;10.20;99.90;;;;;;5059855;28;20017;-72
2022/11/06 02:20:38;;;;;;;8.15;2.17;;;10.30;99.90;;;;;;5064684;28;20064;-76
2022/11/06 02:23:42;;;;;;;11.68;2.83;;;10.20;99.90;;;;;;5075941;28;20402;-72
2022/11/06 02:26:29;;;;;;;8.07;2.38;;;10.30;99.90;;;;;;5064731;28;20440;-75
2022/11/06 02:29:02;;;;;;;6.47;2.40;;;10.40;99.90;;;;;;5065454;28;20322;-73
2022/11/06 02:31:33;;;;;;;10.38;2.33;;;10.40;99.90;;;;;;5043110;28;20082;-73
2022/11/06 02:34:04;;;;;;;8.32;2.50;;;10.40;99.90;;;;;;5065903;28;20021;-73
2022/11/06 02:36:34;;;;;;;7.40;2.30;;;10.50;99.90;;;;;;5059562;28;20480;-74
2022/11/06 02:39:10;;;;;;;1.90;1.80;;;10.50;99.90;;;;;;5060174;28;20033;-74
2022/11/06 02:41:41;;;;;;;7.18;2.55;;;10.50;99.90;;;;;;5061126;28;20044;-73
2022/11/06 02:44:14;;;;;;;6.38;2.05;;;10.50;99.90;;;;;;5063345;28;20033;-73
2022/11/06 02:46:42;;;;;;;;;;;10.50;99.90;;;;;;5059047;28;20029;-75
2022/11/06 02:49:15;;;;;;;6.97;2.20;;;10.60;99.90;;;;;;5060851;28;20753;-73
2022/11/06 02:51:47;;;;;;;9.10;2.20;;;10.60;99.90;;;;;;5056887;28;20400;-76
2022/11/06 02:54:17;;;;;;;8.02;2.35;;;10.60;99.90;;;;;;5061042;28;20021;-72
2022/11/06 02:56:49;;;;;;;9.68;2.97;;;10.50;99.90;;;;;;5059307;28;20036;-76
2022/11/06 02:59:22;;;;;;;7.30;2.23;;;10.50;99.90;;;;;;5057793;28;20029;-74
2022/11/06 03:01:56;;;;;;;8.60;2.20;;;10.50;99.90;;;;;;5060848;28;20078;-72
2022/11/06 03:04:36;;;;;;;8.75;2.70;;;10.60;99.90;;;;;;5058417;28;20106;-73
2022/11/06 03:07:08;;;;;;;4.05;1.83;;;10.70;99.90;;;;;;5066676;28;20040;-76
2022/11/06 03:09:34;;;;;;;5.82;3.00;;;10.60;99.90;;;;;;5062878;28;20020;-71
2022/11/06 03:12:05;;;;;;;7.53;3.60;;;10.60;99.90;;;;;;5064360;28;20483;-73
2022/11/06 03:14:41;;;;;;;7.55;2.58;;;10.60;99.90;;;;;;5062513;28;20372;-72
2022/11/06 03:17:38;;;;;;;6.40;2.10;;;10.60;99.90;;;;;;5057824;28;20024;-72
2022/11/06 03:20:25;;;;;;;5.78;2.08;;;10.60;99.90;;;;;;5062693;28;20063;-73
2022/11/06 03:22:54;;;;;;;12.43;2.53;;;10.60;99.90;;;;;;5058655;28;20037;-73
2022/11/06 03:25:31;;;;;;;8.10;1.90;;;10.50;99.90;;;;;;5062966;28;20074;-74
2022/11/06 03:28:08;;;;;;;7.30;2.50;;;10.60;99.90;;;;;;5059673;28;20038;-72
2022/11/06 03:30:43;;;;;;;8.10;2.55;;;10.60;99.90;;;;;;5063040;28;20028;-75
2022/11/06 03:33:22;;;;;;;7.43;2.10;;;10.60;99.90;;;;;;5059286;28;20029;-72
2022/11/06 03:35:57;;;;;;;7.50;2.10;;;10.70;99.90;;;;;;5063779;28;20033;-71
2022/11/06 03:38:32;;;;;;;4.65;2.28;;;10.60;99.90;;;;;;5061539;28;20020;-73
2022/11/06 03:41:03;;;;;;;3.45;1.42;;;10.70;99.90;;;;;;5055596;28;20091;-72
2022/11/06 03:43:35;;;;;;;9.95;2.13;;;10.70;99.90;;;;;;5061684;28;20025;-72
2022/11/06 03:46:07;;;;;;;4.70;1.90;;;10.70;99.90;;;;;;5045808;28;20083;-74
2022/11/06 03:48:42;;;;;;;5.78;1.80;;;10.80;99.90;;;;;;5067794;28;20022;-75
2022/11/06 03:51:22;;;;;;;6.25;1.83;;;10.70;99.90;;;;;;5061857;28;20032;-72
2022/11/06 03:54:26;;;;;;;4.25;1.90;;;10.80;99.90;;;;;;5064093;28;20036;-73
2022/11/06 03:57:03;;;;;;;;;;;10.70;99.90;;;;;;5057032;28;20126;-72
2022/11/06 03:59:39;;;;;;;8.40;2.08;;;10.70;99.90;;;;;;5063109;28;19909;-73
2022/11/06 04:02:06;;;;;;;8.55;1.75;;;10.80;99.90;;;;;;5064876;28;20101;-72
2022/11/06 04:04:57;;;;;;;13.45;2.40;;;10.80;99.90;;;;;;5060826;28;20025;-70
2022/11/06 04:07:37;;;;;;;8.27;1.83;;;10.90;99.90;;;;;;5064621;28;20025;-73
2022/11/06 04:15:50;;;;;;;7.43;1.83;;;10.80;99.90;;;;;;5061387;28;20076;-73
2022/11/06 04:18:19;;;;;;;9.25;1.65;;;10.80;99.90;;;;;;5065826;28;20106;-72
2022/11/06 04:26:55;;;;;;;8.30;1.80;;;10.90;99.90;;;;;;5061847;28;20032;-74
2022/11/06 04:29:24;;;;;;;3.97;1.20;;;10.80;99.90;;;;;;5061270;28;20017;-72
2022/11/06 04:32:19;;;;;;;7.35;1.70;;;10.80;99.90;;;;;;5057738;28;20683;-72
2022/11/06 04:34:54;;;;;;;3.60;1.55;;;10.90;99.90;;;;;;5062762;28;20047;-71
2022/11/06 04:37:29;;;;;;;9.50;1.77;;;10.90;99.90;;;;;;5060909;28;20024;-72
2022/11/06 04:40:13;;;;;;;8.68;1.65;;;10.90;99.90;;;;;;5058465;28;20025;-73
2022/11/06 04:43:28;;;;;;;2.63;1.60;;;11.00;99.90;;;;;;5062193;28;20021;-72
2022/11/06 04:45:59;;;;;;;6.88;1.92;;;10.90;99.90;;;;;;5061248;28;20064;-74
2022/11/06 04:48:26;;;;;;;8.80;2.00;;;10.90;99.90;;;;;;5064630;28;20078;-74
2022/11/06 04:50:57;;;;;;;14.10;1.75;;;10.90;99.90;;;;;;5056474;28;20024;-72
2022/11/06 04:53:32;;;;;;;5.13;2.00;;;10.90;99.90;;;;;;5061891;28;20017;-74
2022/11/06 04:56:08;;;;;;;11.50;1.60;;;10.90;99.90;;;;;;5061858;28;20050;-73
2022/11/06 04:58:34;;;;;;;6.28;1.50;;;10.90;99.90;;;;;;5060162;28;20021;-72
2022/11/06 05:00:59;;;;;;;9.75;1.60;;;10.90;99.90;;;;;;5063012;28;20021;-72
2022/11/06 05:03:27;;;;;;;7.13;1.83;;;10.90;99.90;;;;;;5060426;28;20040;-72
2022/11/06 05:05:53;;;;;;;8.10;1.95;;;10.80;99.90;;;;;;5057690;28;20021;-72
2022/11/06 05:08:19;;;;;;;7.28;1.52;;;10.90;99.90;;;;;;5059306;28;20025;-72
2022/11/06 05:10:48;;;;;;;9.52;1.55;;;10.80;99.90;;;;;;5059288;28;20017;-74
2022/11/06 05:13:14;;;;;;;8.38;1.70;;;10.80;99.90;;;;;;5066779;28;20082;-72
2022/11/06 05:15:43;;;;;;;7.90;1.30;;;10.80;99.90;;;;;;5061495;28;20028;-72
2022/11/06 05:18:09;;;;;;;6.90;1.40;;;10.80;99.90;;;;;;5061798;28;20036;-74
2022/11/06 05:20:35;;;;;;;14.50;1.75;;;10.60;99.90;;;;;;5059533;28;20112;-76
2022/11/06 05:23:00;;;;;;;7.40;1.52;;;10.60;99.90;;;;;;5061615;28;20032;-72
2022/11/06 05:25:28;;;;;;;8.45;1.63;;;10.60;99.90;;;;;;5061266;28;20458;-73
2022/11/06 05:27:54;;;;;;;6.40;1.80;;;10.60;99.90;;;;;;5068425;28;20037;-77
2022/11/06 05:30:22;;;;;;;4.10;1.77;;;10.70;99.90;;;;;;5063949;28;20397;-72
2022/11/06 05:32:48;;;;;;;4.97;1.55;;;10.60;99.90;;;;;;5062362;28;20044;-72
2022/11/06 05:35:16;;;;;;;10.70;2.30;;;10.60;99.90;;;;;;5056599;28;20029;-71
2022/11/06 05:37:47;;;;;;;8.07;2.00;;;10.50;99.90;;;;;;5063231;28;20108;-72
2022/11/06 05:40:13;;;;;;;9.23;1.92;;;10.60;99.90;;;;;;5058420;28;20044;-72
2022/11/06 05:42:42;;;;;;;10.18;1.73;;;10.60;99.90;;;;;;5063166;28;20028;-72
2022/11/06 05:45:10;;;;;;;11.35;2.63;;;10.60;99.90;;;;;;5063802;28;20497;-73
2022/11/06 05:47:42;;;;;;;6.03;2.28;;;10.50;99.90;;;;;;5059648;28;20040;-73
2022/11/06 05:50:09;;;;;;;6.53;2.58;;;10.60;99.90;;;;;;5056980;28;20517;-72
2022/11/06 05:52:35;;;;;;;14.55;2.70;;;10.60;99.90;;;;;;5061618;28;20104;-72
2022/11/06 05:55:01;;;;;;;7.95;2.20;;;10.60;99.90;;;;;;5060739;28;20525;-72
2022/11/06 05:57:26;;;;;;;10.07;2.80;;;10.60;99.90;;;;;;5058618;28;20029;-74
2022/11/06 05:59:54;;;;;;;6.43;2.55;;;10.60;99.90;;;;;;5059704;28;20114;-73
2022/11/06 06:02:22;;;;;;;12.55;2.40;;;10.60;99.90;;;;;;5055239;28;20394;-73
2022/11/06 06:04:50;;;;;;;13.02;2.63;;;10.60;99.90;;;;;;5055210;28;20471;-73
2022/11/06 06:07:19;;;;;;;8.20;3.13;;;10.50;99.90;;;;;;5056636;28;20029;-73
2022/11/06 06:09:45;;;;;;;13.38;2.97;;;10.40;99.90;;;;;;5059418;28;20032;-72
2022/11/06 06:12:13;;;;;;;15.07;2.55;;;10.50;99.90;;;;;;5058467;28;20021;-72
2022/11/06 06:14:38;;;;;;;10.90;2.50;;;10.40;99.90;;;;;;5060936;28;20036;-72
2022/11/06 06:17:09;;;;;;;9.07;2.50;;;10.40;99.90;;;;;;5062895;28;20021;-74
2022/11/06 06:19:37;;;;;;;11.25;2.58;;;10.40;99.90;;;;;;5062621;28;20058;-73
2022/11/06 06:22:05;;;;;;;15.77;3.08;;;10.30;99.90;;;;;;5062242;28;20354;-75
2022/11/06 06:24:31;;;;;;;9.82;2.60;;;10.30;99.90;;;;;;5059189;28;20112;-73
2022/11/06 06:26:59;;;;;;;10.73;2.80;;;10.40;99.90;;;;;;5061848;28;20107;-72
2022/11/06 06:29:25;;;;;;;11.57;2.42;;;10.40;99.90;;;;;;5055749;28;20108;-73
2022/11/06 06:31:50;;;;;;;14.60;3.20;;;10.40;99.90;;;;;;5066726;28;20117;-72
2022/11/06 06:34:16;;;;;;;6.18;2.50;;;10.50;99.90;;;;;;5061150;28;20667;-72
2022/11/06 06:36:47;;;;;;;9.77;2.63;;;10.40;99.90;;;;;;5058994;28;20036;-72
2022/11/06 06:39:13;;;;;;;9.10;3.10;;;10.40;99.90;;;;;;5062933;28;20045;-72
2022/11/06 06:41:38;;;;;;;16.60;4.13;;;10.40;99.90;;;;;;5065730;28;20371;-72
2022/11/06 06:44:04;;;;;;;13.07;3.65;;;10.40;99.90;;;;;;5062937;28;20032;-73
2022/11/06 06:46:30;;;;;;;11.18;2.95;;;10.40;99.90;;;;;;5064396;28;20598;-74
2022/11/06 06:48:55;;;;;;;12.35;2.97;;;10.40;99.90;;;;;;5067559;28;20028;-72
2022/11/06 06:51:26;;;;;;;13.07;3.05;;;10.40;99.90;;;;;;5068413;28;20502;-72
2022/11/06 06:53:51;;;;;;;9.88;2.70;;;10.40;99.90;;;;;;5065309;28;20021;-73
2022/11/06 06:56:19;;;;;;;6.47;2.85;;;10.40;99.90;;;;;;5063338;28;20162;-73
2022/11/06 06:58:51;;;;;;;10.85;2.72;;;10.50;99.90;;;;;;5064921;28;20647;-73
2022/11/06 07:01:17;;;;;;;9.87;3.03;;;10.40;99.90;;;;;;5065471;28;20039;-72
2022/11/06 07:03:43;;;;;;;8.23;2.58;;;10.40;99.90;;;;;;5060025;28;20029;-73
2022/11/06 07:06:09;;;;;;;9.68;2.58;;;10.40;99.90;;;;;;5061349;28;20035;-72
2022/11/06 07:08:34;;;;;;;9.10;2.72;;;10.40;99.90;;;;;;5059608;28;20484;-73
2022/11/06 07:11:04;;;;;;;11.68;3.15;;;10.50;99.90;;;;;;5061605;28;20032;-73
2022/11/06 07:13:29;;;;;;;9.82;2.90;;;10.40;99.90;;;;;;5061779;28;20021;-74
2022/11/06 07:16:01;;;;;;;11.98;3.03;;;10.40;99.90;;;;;;5059150;28;20025;-72
2022/11/06 07:18:28;;;;;;;14.18;2.70;;;10.50;99.90;;;;;;5060635;28;20021;-74
2022/11/06 07:20:54;;;;;;;11.77;3.05;;;10.60;99.90;;;;;;5061468;28;20017;-73
2022/11/06 07:23:20;;;;;;;8.68;3.20;;;10.60;99.90;;;;;;5062164;28;20032;-72
2022/11/06 07:25:51;;;;;;;9.73;2.85;;;10.60;99.90;;;;;;5066561;28;20029;-73
2022/11/06 07:28:17;;;;;;;12.57;2.90;;;10.50;99.90;;;;;;5062379;28;20092;-72
2022/11/06 07:30:42;;;;;;;11.52;2.63;;;10.50;99.90;;;;;;5058608;28;20197;-74
2022/11/06 07:33:10;;;;;;;14.55;2.95;;;10.60;99.90;;;;;;5062454;28;20041;-74
2022/11/06 07:35:38;;;;;;;10.52;2.58;;;10.60;99.90;;;;;;5058184;28;20024;-72
2022/11/06 07:38:05;;;;;;;9.98;2.95;;;10.60;99.90;;;;;;5060541;28;20028;-72
2022/11/06 07:40:32;;;;;;;13.38;2.65;;;10.60;99.90;;;;;;5068301;28;20405;-75
2022/11/06 07:43:06;;;;;;;11.85;2.63;;;10.70;99.90;;;;;;5062319;28;20029;-72
2022/11/06 07:45:40;;;;;;;11.32;2.50;;;10.70;99.90;;;;;;5058245;28;20048;-73
2022/11/06 07:48:06;;;;;;;6.10;2.30;;;10.80;99.90;;;;;;5074923;28;20210;-72
2022/11/06 07:50:34;;;;;;;5.03;2.25;;;10.80;99.90;;;;;;5063583;28;20108;-74
2022/11/06 07:53:02;;;;;;;9.75;2.67;;;10.90;99.90;;;;;;5063681;28;20031;-72
2022/11/06 07:55:27;;;;;;;5.78;2.30;;;10.90;99.90;;;;;;5063313;28;20115;-76
2022/11/06 07:57:53;;;;;;;6.47;2.00;;;11.00;99.90;;;;;;5060982;28;20655;-73
2022/11/06 08:00:20;;;;;;;9.85;2.72;;;11.10;99.90;;;;;;5064089;28;20345;-74
2022/11/06 08:02:50;;;;;;;7.25;2.50;;;11.20;99.90;;;;;;5059713;28;20104;-72
2022/11/06 08:05:16;;;;;;;7.95;2.47;;;11.20;99.90;;;;;;5059081;28;20167;-73
2022/11/06 08:07:46;;;;;;;12.85;2.53;;;11.30;99.90;;;;;;5064744;28;20485;-73
2022/11/06 08:10:14;;;;;;;7.97;2.40;;;11.30;99.90;;;;;;5066112;28;20028;-73
2022/11/06 08:12:40;;;;;;;8.70;2.80;;;11.40;99.90;;;;;;5062252;28;20103;-73
2022/11/06 08:15:06;;;;;;;11.32;2.78;;;11.60;99.90;;;;;;5058864;28;20518;-72
2022/11/06 08:17:31;;;;;;;10.52;2.38;;;11.70;99.90;;;;;;5062257;28;20020;-73
2022/11/06 08:19:57;;;;;;;5.22;2.70;;;11.60;99.90;;;;;;5065578;28;20033;-70
2022/11/06 08:22:23;;;;;;;78.75;27.67;;;11.80;99.90;;;;;;5063369;28;20037;-72
2022/11/06 08:24:51;;;;;;;9.35;2.67;;;11.90;99.90;;;;;;5066002;28;20027;-72
2022/11/06 08:27:17;;;;;;;9.38;2.50;;;11.80;99.90;;;;;;5062763;28;20109;-72
2022/11/06 08:29:44;;;;;;;14.70;2.95;;;11.90;99.90;;;;;;5060362;28;20118;-74
2022/11/06 08:32:12;;;;;;;7.68;2.40;;;11.90;99.90;;;;;;5061648;28;20153;-73
2022/11/06 08:34:38;;;;;;;11.95;2.30;;;12.00;99.90;;;;;;5061677;28;20055;-74
2022/11/06 08:37:04;;;;;;;11.57;2.25;;;12.10;99.90;;;;;;5059169;28;20671;-74
2022/11/06 08:39:32;;;;;;;8.05;2.58;;;12.10;99.90;;;;;;5063037;28;20020;-73
2022/11/06 08:42:02;;;;;;;11.13;2.50;;;12.20;99.90;;;;;;5062600;28;20056;-73
2022/11/06 08:44:30;;;;;;;10.77;2.60;;;12.30;99.90;;;;;;5063645;28;20044;-75
2022/11/06 08:46:56;;;;;;;7.80;2.92;;;12.40;99.90;;;;;;5062019;28;20032;-77
2022/11/06 08:49:21;;;;;;;4.82;1.98;;;12.40;99.90;;;;;;5059226;28;20017;-74
2022/11/06 08:51:47;;;;;;;8.07;2.67;;;12.30;99.90;;;;;;5068139;28;20099;-76
2022/11/06 08:54:13;;;;;;;7.40;2.80;;;12.30;99.90;;;;;;5062824;28;20050;-73
2022/11/06 08:56:38;;;;;;;7.97;2.55;;;12.20;99.90;;;;;;5063117;28;20024;-76
2022/11/06 08:59:04;;;;;;;15.35;3.05;;;12.30;99.90;;;;;;5062730;28;20020;-76
2022/11/06 09:01:30;;;;;;;5.55;1.85;;;12.30;99.90;;;;;;5058153;28;20033;-76
2022/11/06 09:03:56;;;;;;;11.60;2.55;;;12.20;99.90;;;;;;5062229;28;20021;-73
2022/11/06 09:06:24;;;;;;;6.93;2.10;;;12.20;99.90;;;;;;5055461;28;20052;-72
2022/11/06 09:08:52;;;;;;;8.15;2.35;;;12.20;99.90;;;;;;5061462;28;20044;-73
2022/11/06 09:11:18;;;;;;;8.90;2.72;;;12.20;99.90;;;;;;5062103;28;20028;-74
2022/11/06 09:13:43;;;;;;;13.43;2.28;;;12.20;99.90;;;;;;5058739;28;20029;-75
2022/11/06 09:16:11;;;;;;;15.60;5.10;;;12.30;99.90;;;;;;5059488;28;20027;-71
2022/11/06 09:18:37;;;;;;;7.55;2.03;;;12.40;99.90;;;;;;5064738;28;20027;-72
2022/11/06 09:21:03;;;;;;;15.43;2.45;;;12.30;99.90;;;;;;5058629;28;20024;-76
2022/11/06 09:23:31;;;;;;;5.80;1.83;;;12.40;99.90;;;;;;5061719;28;20067;-74
2022/11/06 09:25:57;;;;;;;7.65;2.53;;;12.40;99.90;;;;;;5061436;28;20021;-72
2022/11/06 09:28:23;;;;;;;10.30;2.35;;;12.30;99.90;;;;;;5062176;28;20091;-73
2022/11/06 09:30:54;;;;;;;6.75;2.63;;;12.40;99.90;;;;;;5062539;28;20453;-74
2022/11/06 09:33:22;;;;;;;10.80;2.90;;;12.40;99.90;;;;;;5059857;28;20111;-73
2022/11/06 09:35:48;;;;;;;8.15;2.03;;;12.50;99.90;;;;;;5062180;28;20024;-72
2022/11/06 09:38:14;;;;;;;5.72;1.90;;;12.60;99.90;;;;;;5066323;28;20032;-72
2022/11/06 09:40:55;;;;;;;7.80;2.10;;;12.50;99.90;;;;;;5057850;28;20139;-75
2022/11/06 09:43:36;;;;;;;6.95;2.08;;;12.50;99.90;;;;;;5061639;28;20039;-72
2022/11/06 09:46:25;;;;;;;6.80;1.88;;;12.60;99.90;;;;;;5076795;28;20350;-73
2022/11/06 09:49:00;;;;;;;5.53;1.80;;;12.70;99.90;;;;;;5059372;28;20088;-72
2022/11/06 09:51:56;;;;;;;5.72;2.20;;;12.90;99.90;;;;;;5060709;28;20017;-72
2022/11/06 09:54:50;;;;;;;7.82;2.00;;;12.90;99.90;;;;;;5058102;28;20458;-73
2022/11/06 09:57:41;;;;;;;6.70;2.60;;;12.90;99.90;;;;;;5045194;28;20039;-73
2022/11/06 10:00:11;;;;;;;8.15;2.63;;;12.90;99.90;;;;;;5059613;28;20525;-74
2022/11/06 10:03:11;;;;;;;6.20;2.65;;;12.90;99.90;;;;;;5062533;28;20053;-72
2022/11/06 10:05:39;;;;;;;11.00;2.15;;;13.00;99.90;;;;;;5055336;28;20021;-73
2022/11/06 10:08:26;;;;;;;5.95;2.25;;;13.10;99.90;;;;;;5064427;28;20033;-72
2022/11/06 10:11:17;;;;;;;13.40;2.05;;;13.20;99.90;;;;;;5059849;28;20036;-75
2022/11/06 10:13:45;;;;;;;7.40;2.08;;;13.20;99.90;;;;;;5061280;28;20033;-72
2022/11/06 10:16:48;;;;;;;6.65;1.80;;;13.10;99.90;;;;;;5066431;28;20035;-71
2022/11/06 10:19:38;;;;;;;7.22;2.15;;;13.10;99.90;;;;;;5063937;28;20040;-74
2022/11/06 10:22:14;;;;;;;9.50;2.38;;;13.30;99.90;;;;;;5065635;28;20064;-74
2022/11/06 10:25:04;;;;;;;5.20;1.95;;;13.40;99.90;;;;;;5062989;28;20028;-73
2022/11/06 10:27:40;;;;;;;5.68;2.10;;;13.60;99.90;;;;;;5059015;28;20142;-73
2022/11/06 10:30:13;;;;;;;10.95;2.35;;;14.10;99.90;;;;;;5061580;28;20030;-73
2022/11/06 10:32:50;;;;;;;6.45;2.10;;;14.80;99.90;;;;;;5063981;28;20094;-74
2022/11/06 10:35:41;;;;;;;5.35;2.25;;;15.40;99.90;;;;;;5061808;28;20029;-72
2022/11/06 10:38:13;;;;;;;37.45;13.18;;;15.90;99.90;;;;;;5076029;28;20036;-77
2022/11/06 10:40:43;;;;;;;8.65;3.80;;;16.10;99.90;;;;;;5067337;28;20028;-74
2022/11/06 10:43:28;;;;;;;12.98;2.45;;;15.70;99.90;;;;;;5063759;28;20432;-73
2022/11/06 10:46:30;;;;;;;7.05;2.35;;;15.40;99.90;;;;;;5065612;28;20021;-75
2022/11/06 10:49:05;;;;;;;4.30;1.75;;;15.10;99.90;;;;;;5068606;28;20112;-72
2022/11/06 10:51:50;;;;;;;6.72;2.38;;;14.90;99.90;;;;;;5065455;28;20024;-76
2022/11/06 10:54:50;;;;;;;7.78;2.00;;;14.80;99.90;;;;;;5065372;28;20021;-73
2022/11/06 10:57:23;;;;;;;8.75;2.28;;;14.70;99.90;;;;;;5068773;28;20021;-75
2022/11/06 10:59:55;;;;;;;10.43;2.10;;;14.70;99.90;;;;;;5069749;28;20025;-74
2022/11/06 11:02:24;;;;;;;6.05;1.80;;;14.60;99.90;;;;;;5069391;28;20025;-72
2022/11/06 11:04:53;;;;;;;4.15;2.05;;;14.80;99.90;;;;;;5068520;28;20052;-74
2022/11/06 11:07:33;;;;;;;7.00;2.38;;;15.10;99.90;;;;;;5067604;28;20551;-71
2022/11/06 11:10:19;;;;;;;8.00;2.20;;;15.10;99.90;;;;;;5066828;28;20024;-71
2022/11/06 11:12:55;;;;;;;7.75;1.95;;;15.60;99.90;;;;;;5082706;28;20028;-76
2022/11/06 11:15:44;;;;;;;8.65;2.88;;;15.70;99.90;;;;;;5061307;28;20033;-75
2022/11/06 11:18:29;;;;;;;6.90;2.53;;;15.40;99.90;;;;;;5048351;28;20029;-76
2022/11/06 11:21:15;;;;;;;286.90;124.90;;;15.00;99.90;;;;;;5066192;28;20032;-72
2022/11/06 11:23:43;;;;;;;410.50;124.70;;;14.50;99.90;;;;;;5059435;28;20091;-70
2022/11/06 11:26:20;;;;;;;6.45;2.88;;;14.50;99.90;;;;;;5062798;28;20060;-75
2022/11/06 11:28:59;;;;;;;11.85;2.45;;;14.50;99.90;;;;;;5065313;28;20768;-73
2022/11/06 11:31:30;;;;;;;6.72;2.28;;;14.40;99.90;;;;;;5065194;28;20024;-75
2022/11/06 11:34:01;;;;;;;9.20;2.90;;;14.40;99.90;;;;;;5061986;28;20052;-73
2022/11/06 11:36:57;;;;;;;7.13;2.20;;;14.30;99.90;;;;;;5067923;28;20033;-73
2022/11/06 11:39:39;;;;;;;11.35;2.45;;;14.30;99.90;;;;;;5063805;28;20037;-74
2022/11/06 11:42:22;;;;;;;9.45;2.45;;;14.40;99.90;;;;;;5061389;28;20040;-74
2022/11/06 11:45:07;;;;;;;8.85;2.70;;;14.30;99.90;;;;;;5061639;28;20032;-73
2022/11/06 11:47:32;;;;;;;7.75;2.13;;;14.30;99.90;;;;;;5071298;28;21441;-76
2022/11/06 11:50:32;;;;;;;105.85;35.30;;;14.40;99.90;;;;;;5061250;28;20032;-74
2022/11/06 11:53:05;;;;;;;6.70;2.25;;;14.30;99.90;;;;;;5061902;28;20028;-76
2022/11/06 11:55:37;;;;;;;5.53;1.92;;;14.20;99.90;;;;;;5068495;28;20036;-72
2022/11/06 11:58:13;;;;;;;8.07;2.35;;;14.10;99.90;;;;;;5060802;28;20032;-76
2022/11/06 12:00:54;;;;;;;13.35;2.45;;;14.10;99.90;;;;;;5059639;28;20056;-74
2022/11/06 12:03:23;;;;;;;14.57;2.30;;;14.10;99.90;;;;;;5058496;28;20040;-75
2022/11/06 12:05:51;;;;;;;12.93;2.70;;;14.10;99.90;;;;;;5060383;28;20017;-70
2022/11/06 12:08:24;;;;;;;7.63;2.42;;;14.00;99.90;;;;;;5064446;28;20028;-71
2022/11/06 12:10:50;;;;;;;10.43;2.63;;;14.00;99.90;;;;;;5064836;28;20345;-71
2022/11/06 12:13:20;;;;;;;10.68;2.95;;;14.10;99.90;;;;;;5065532;28;20028;-72
2022/11/06 12:15:53;;;;;;;7.55;2.50;;;14.40;99.90;;;;;;5058622;28;20033;-73
2022/11/06 12:18:27;;;;;;;11.27;2.65;;;15.00;99.90;;;;;;5061647;28;20539;-74
2022/11/06 12:21:07;;;;;;;4.50;2.13;;;15.40;99.90;;;;;;5061764;28;20550;-74
2022/11/06 12:23:50;;;;;;;199.90;68.05;;;15.70;99.90;;;;;;5059285;28;20040;-70
2022/11/06 12:26:25;;;;;;;14.13;2.90;;;16.10;99.90;;;;;;5062916;28;20075;-73
2022/11/06 12:29:00;;;;;;;8.85;2.42;;;16.20;99.90;;;;;;5061627;28;20066;-75
2022/11/06 12:31:45;;;;;;;8.77;2.10;;;15.80;99.60;;;;;;5059995;28;20031;-73
2022/11/06 12:34:18;;;;;;;12.13;2.45;;;15.70;99.90;;;;;;5061365;28;20026;-72
2022/11/06 12:36:52;;;;;;;;;;;15.60;99.70;;;;;;5060566;28;20057;-75
2022/11/06 12:39:24;;;;;;;4.82;2.15;;;15.50;99.70;;;;;;5061018;28;20338;-77
2022/11/06 12:41:53;;;;;;;11.20;3.00;;;15.30;99.90;;;;;;5057868;28;20043;-75
2022/11/06 12:44:19;;;;;;;7.60;2.50;;;15.30;99.90;;;;;;5060801;28;20330;-75
2022/11/06 12:47:26;;;;;;;7.82;2.20;;;15.30;99.50;;;;;;5062585;28;20085;-75
2022/11/06 12:50:18;;;;;;;7.88;2.50;;;15.20;99.80;;;;;;5027034;28;20034;-74
2022/11/06 12:52:49;;;;;;;4.55;2.20;;;15.00;99.90;;;;;;5062590;28;20044;-73
2022/11/06 12:55:38;;;;;;;8.75;2.53;;;14.90;99.90;;;;;;5061975;28;20475;-73
2022/11/06 12:58:35;;;;;;;9.52;2.40;;;14.70;99.90;;;;;;5062660;28;20082;-74
2022/11/06 13:01:10;;;;;;;5.07;2.58;;;14.60;99.90;;;;;;5077896;28;20512;-74
2022/11/06 13:04:00;;;;;;;3.80;2.60;;;14.50;99.90;;;;;;5062919;28;20078;-74
2022/11/06 13:06:56;;;;;;;6.25;2.08;;;14.50;99.90;;;;;;5061192;28;20024;-74
2022/11/06 13:09:35;;;;;;;9.25;1.70;;;14.40;99.90;;;;;;5069347;28;20559;-72
2022/11/06 13:12:22;;;;;;;7.60;2.03;;;14.10;99.90;;;;;;5066000;28;20044;-75
2022/11/06 13:15:10;;;;;;;7.05;2.22;;;14.00;99.90;;;;;;5062808;28;20032;-77
2022/11/06 13:17:54;;;;;;;5.68;2.92;;;14.00;99.90;;;;;;5063705;28;20047;-72
2022/11/06 13:20:37;;;;;;;7.80;2.38;;;14.10;99.90;;;;;;5062717;28;20082;-74
2022/11/06 13:23:12;;;;;;;3.63;2.05;;;14.10;99.90;;;;;;5064066;28;20231;-75
2022/11/06 13:25:58;;;;;;;10.10;2.20;;;14.10;99.90;;;;;;5044918;28;20039;-72
2022/11/06 13:28:36;;;;;;;3.50;1.85;;;13.90;99.90;;;;;;5063148;28;20138;-73